Rosewood, California
Current Conditions -  °F | °C
As of 9:53 PM on Monday 26 Jan 2015 (Local Time) from KHHR Reporting Station
Light Rain Light Rain  
Wind Chill: 58°   Ceiling: 4500
Heat Index: 58°   Visibility: 7mi
Dew Point: 55°   Wind: 0mph
Humidity: 90%   Direction: NA
Pressure: 30.1"   Gusts: NA
Location:  33.9125°N, 118.235°W
Report Text: KHHR 270553Z AUTO 00000KT 7SM -RA BKN045 BKN055 OVC095 14/13 A3010 RMK AO2 SLP191 P0002 60010 T01440128 10200 20144 50006
Loading
Personal Weather Stations






























Interactive Weather Map New forecast layout! Learn more

10-Day Weather Forecast

Advertisements
Track Severe Weather on mobile